createdAt,value
2019-04-20T00:02:20.658Z,66.58
2019-04-20T00:04:49.430Z,66.62
2019-04-20T00:07:23.971Z,66.65
2019-04-20T00:09:56.642Z,66.76
2019-04-20T00:12:29.839Z,66.92
2019-04-20T00:14:50.002Z,66.96
2019-04-20T00:17:19.973Z,66.92
2019-04-20T00:19:53.842Z,66.86
2019-04-20T00:22:24.570Z,66.88
2019-04-20T00:24:56.829Z,66.95
2019-04-20T00:27:44.418Z,67.00
2019-04-20T00:30:21.073Z,66.89
2019-04-20T00:32:41.315Z,66.91
2019-04-20T00:34:55.927Z,66.89
2019-04-20T00:37:25.351Z,66.70
2019-04-20T00:39:55.986Z,66.56
2019-04-20T00:42:33.016Z,66.33
2019-04-20T00:45:03.079Z,66.12
2019-04-20T00:47:37.580Z,65.99
2019-04-20T00:50:05.561Z,65.99
2019-04-20T00:52:41.267Z,65.99
2019-04-20T00:54:55.969Z,66.08
2019-04-20T00:57:34.718Z,65.99
2019-04-20T01:00:11.077Z,66.01
2019-04-20T01:02:37.145Z,66.09
2019-04-20T01:05:12.851Z,66.17
2019-04-20T01:07:49.575Z,66.24
2019-04-20T01:10:19.324Z,66.40
2019-04-20T01:12:52.024Z,66.58
2019-04-20T01:15:28.144Z,66.77
2019-04-20T01:17:48.849Z,66.82
2019-04-20T01:20:17.738Z,66.86
2019-04-20T01:22:54.688Z,66.99
2019-04-20T01:25:26.448Z,67.08
2019-04-20T01:28:19.310Z,67.11
2019-04-20T01:30:25.356Z,67.21
2019-04-20T01:32:59.943Z,67.24
2019-04-20T01:35:35.553Z,67.34
2019-04-20T01:38:07.355Z,67.35
2019-04-20T01:40:19.381Z,67.29
2019-04-20T01:42:48.955Z,67.45
2019-04-20T01:45:22.441Z,67.61
2019-04-20T01:47:53.105Z,67.86
2019-04-20T01:50:22.541Z,67.95
2019-04-20T01:52:58.310Z,68.01
2019-04-20T01:55:42.483Z,68.08
2019-04-20T01:58:17.563Z,68.23
2019-04-20T02:00:35.648Z,68.40
2019-04-20T02:03:22.792Z,68.56
2019-04-20T02:05:59.153Z,68.79
2019-04-20T02:08:24.935Z,68.79
2019-04-20T02:10:57.636Z,68.94
2019-04-20T02:13:26.378Z,69.04
2019-04-20T02:15:57.824Z,69.10
2019-04-20T02:18:36.174Z,69.12
2019-04-20T02:21:09.755Z,69.27
2019-04-20T02:23:33.580Z,69.35
2019-04-20T02:25:54.267Z,69.44
2019-04-20T02:28:44.659Z,69.59
2019-04-20T02:31:32.945Z,69.76
2019-04-20T02:36:55.003Z,69.94
2019-04-20T02:41:36.121Z,70.09
2019-04-20T02:46:31.521Z,70.21
2019-04-20T02:49:10.149Z,70.22
2019-04-20T02:51:37.091Z,70.25
2019-04-20T02:54:11.477Z,70.30
2019-04-20T02:59:17.144Z,70.43
2019-04-20T03:01:26.817Z,70.59
2019-04-20T03:03:41.456Z,70.63
2019-04-20T03:06:19.510Z,70.67
2019-04-20T03:08:56.608Z,70.64
2019-04-20T03:11:31.716Z,70.75
2019-04-20T03:13:58.110Z,70.65
2019-04-20T03:16:28.977Z,70.67
2019-04-20T03:18:55.713Z,70.63
2019-04-20T03:21:33.210Z,70.59
2019-04-20T03:24:06.980Z,70.50
2019-04-20T03:26:31.260Z,70.60
2019-04-20T03:28:58.902Z,70.71
2019-04-20T03:31:54.203Z,70.57
2019-04-20T03:34:51.600Z,70.61
2019-04-20T03:36:51.198Z,70.68
2019-04-20T03:39:07.030Z,70.55
2019-04-20T03:41:26.231Z,70.57
2019-04-20T03:43:47.931Z,70.61
2019-04-20T03:46:19.862Z,70.65
2019-04-20T03:48:58.627Z,70.81
2019-04-20T03:51:39.827Z,70.87
2019-04-20T03:54:13.551Z,70.97
2019-04-20T03:56:46.332Z,71.05
2019-04-20T03:59:17.408Z,71.14
2019-04-20T04:02:17.145Z,71.18
2019-04-20T04:04:27.159Z,71.25
2019-04-20T04:06:47.910Z,71.26
2019-04-20T04:09:23.650Z,71.31
2019-04-20T04:11:57.598Z,71.34
2019-04-20T04:14:11.674Z,71.41
2019-04-20T04:16:45.681Z,71.45
2019-04-20T04:19:20.765Z,71.54
2019-04-20T04:21:59.239Z,71.55
2019-04-20T04:24:23.517Z,71.65
2019-04-20T04:26:56.241Z,71.73
2019-04-20T04:29:35.588Z,71.77
2019-04-20T04:32:05.412Z,71.83
2019-04-20T04:34:31.030Z,71.87
2019-04-20T04:37:04.825Z,71.89
2019-04-20T04:39:33.934Z,71.90
2019-04-20T04:42:14.219Z,71.90
2019-04-20T04:44:27.751Z,71.90
2019-04-20T04:46:53.471Z,71.83
2019-04-20T04:49:23.318Z,71.86
2019-04-20T04:51:52.340Z,71.82
2019-04-20T04:54:25.929Z,71.79
2019-04-20T04:56:44.423Z,71.66
2019-04-20T04:59:12.866Z,71.55
2019-04-20T05:01:45.263Z,71.42
2019-04-20T05:04:33.971Z,71.20
2019-04-20T05:06:58.422Z,70.99
2019-04-20T05:09:15.366Z,70.84
2019-04-20T05:11:42.718Z,70.60
2019-04-20T05:14:20.260Z,70.39
2019-04-20T05:16:58.317Z,70.35
2019-04-20T05:19:37.076Z,70.29
2019-04-20T05:22:11.096Z,70.03
2019-04-20T05:24:34.874Z,69.45
2019-04-20T05:27:16.011Z,69.13
2019-04-20T05:29:24.983Z,68.86
2019-04-20T05:31:55.896Z,68.61
2019-04-20T05:34:38.785Z,68.25
2019-04-20T05:37:17.761Z,67.88
2019-04-20T05:39:38.201Z,67.50
2019-04-20T05:42:12.689Z,66.93
2019-04-20T05:44:41.521Z,66.81
2019-04-20T05:47:12.330Z,66.29
2019-04-20T05:49:38.573Z,66.07
2019-04-20T05:52:24.115Z,65.64
2019-04-20T05:54:46.061Z,65.07
2019-04-20T05:57:22.309Z,64.58
2019-04-20T05:59:51.175Z,64.21
2019-04-20T06:02:16.956Z,63.88
2019-04-20T06:04:53.986Z,63.32
2019-04-20T06:07:16.793Z,63.02
2019-04-20T06:09:46.353Z,62.73
2019-04-20T06:12:33.177Z,62.42
2019-04-20T06:14:55.903Z,62.05
2019-04-20T06:17:32.015Z,61.68
2019-04-20T06:20:07.797Z,61.06
2019-04-20T06:22:42.797Z,60.54
2019-04-20T06:25:23.593Z,59.72
2019-04-20T06:27:42.538Z,59.42
2019-04-20T06:30:08.256Z,59.17
2019-04-20T06:33:24.427Z,58.69
2019-04-20T06:36:09.884Z,58.56
2019-04-20T06:38:38.699Z,58.33
2019-04-20T06:40:55.227Z,57.88
2019-04-20T06:43:11.125Z,56.80
2019-04-20T06:45:55.142Z,56.33
2019-04-20T06:48:21.668Z,56.22
2019-04-20T06:50:44.706Z,55.97
2019-04-20T06:53:36.640Z,56.01
2019-04-20T06:56:15.785Z,55.70
2019-04-20T07:01:10.971Z,55.22
2019-04-20T07:06:31.174Z,54.08
2019-04-20T07:09:00.844Z,53.98
2019-04-20T07:11:18.870Z,53.13
2019-04-20T07:13:35.897Z,53.16
2019-04-20T07:16:18.204Z,53.12
2019-04-20T07:19:09.148Z,52.75
2019-04-20T07:22:01.887Z,52.30
2019-04-20T07:24:38.602Z,52.14
2019-04-20T07:26:55.516Z,51.13
2019-04-20T07:29:29.608Z,51.25
2019-04-20T07:31:48.706Z,51.29
2019-04-20T07:34:26.665Z,50.84
2019-04-20T07:37:17.945Z,50.59
2019-04-20T07:39:34.770Z,49.86
2019-04-20T07:42:00.382Z,50.12
2019-04-20T07:44:36.386Z,50.07
2019-04-20T07:47:07.783Z,49.87
2019-04-20T07:49:32.498Z,49.70
2019-04-20T07:51:45.422Z,49.22
2019-04-20T07:54:41.566Z,48.99
2019-04-20T07:56:58.600Z,48.99
2019-04-20T07:59:26.475Z,48.73
2019-04-20T08:02:15.757Z,48.26
2019-04-20T08:04:56.273Z,47.49
2019-04-20T08:07:10.609Z,47.20
2019-04-20T08:09:47.830Z,46.90
2019-04-20T08:12:43.212Z,46.64
2019-04-20T08:15:24.001Z,46.34
2019-04-20T08:20:10.665Z,45.32
2019-04-20T08:22:41.059Z,45.20
2019-04-20T08:25:04.619Z,44.80
2019-04-20T08:27:25.735Z,44.45
2019-04-20T08:30:32.377Z,44.25
2019-04-20T08:32:58.472Z,43.23
2019-04-20T08:35:39.785Z,42.97
2019-04-20T08:38:14.863Z,42.25
2019-04-20T08:40:37.315Z,41.18
2019-04-20T08:43:20.186Z,40.83
2019-04-20T08:45:41.717Z,41.08
2019-04-20T08:48:14.235Z,41.27
2019-04-20T08:50:42.503Z,41.37
2019-04-20T08:55:40.123Z,40.95
2019-04-20T08:57:51.727Z,40.18
2019-04-20T09:00:29.709Z,39.73
2019-04-20T09:02:57.856Z,39.53
2019-04-20T09:05:34.618Z,39.61
2019-04-20T09:08:02.522Z,39.79
2019-04-20T09:10:56.488Z,38.65
2019-04-20T09:13:05.756Z,38.64
2019-04-20T09:15:23.350Z,38.05
2019-04-20T09:18:09.099Z,37.90
2019-04-20T09:20:44.672Z,37.23
2019-04-20T09:23:21.288Z,36.93
2019-04-20T09:26:01.842Z,36.95
2019-04-20T09:28:23.732Z,36.77
2019-04-20T09:31:13.191Z,36.13
2019-04-20T09:33:51.636Z,35.82
2019-04-20T09:36:32.402Z,35.27
2019-04-20T09:39:17.707Z,35.24
2019-04-20T09:41:59.011Z,34.78
2019-04-20T09:44:11.390Z,34.08
2019-04-20T09:46:46.063Z,34.64
2019-04-20T09:49:20.144Z,34.93
2019-04-20T09:51:59.745Z,34.58
2019-04-20T09:54:31.006Z,35.08
2019-04-20T09:57:04.963Z,34.65
2019-04-20T09:59:31.875Z,34.48
2019-04-20T10:01:46.783Z,34.54
2019-04-20T10:04:13.193Z,34.72
2019-04-20T10:06:43.489Z,34.33
2019-04-20T10:09:13.640Z,34.35
2019-04-20T10:11:44.209Z,34.70
2019-04-20T10:14:12.522Z,34.76
2019-04-20T10:16:41.992Z,34.33
2019-04-20T10:19:11.965Z,34.31
2019-04-20T10:21:41.553Z,34.10
2019-04-20T10:24:12.585Z,34.70
2019-04-20T10:26:42.792Z,35.21
2019-04-20T10:29:11.273Z,36.21
2019-04-20T10:31:45.476Z,34.78
2019-04-20T10:34:11.539Z,35.30
2019-04-20T10:36:42.135Z,35.38
2019-04-20T10:39:12.910Z,35.34
2019-04-20T10:41:49.196Z,34.79
2019-04-20T10:44:12.436Z,33.60
2019-04-20T10:46:40.958Z,33.33
2019-04-20T10:49:09.815Z,32.99
2019-04-20T10:51:40.114Z,33.45
2019-04-20T10:54:08.766Z,32.98
2019-04-20T10:56:37.429Z,32.31
2019-04-20T10:59:05.900Z,32.04
2019-04-20T11:01:35.818Z,31.72
2019-04-20T11:04:04.963Z,31.40
2019-04-20T11:06:34.583Z,31.45
2019-04-20T11:09:04.566Z,30.67
2019-04-20T11:11:34.183Z,30.40
2019-04-20T11:14:08.311Z,30.90
2019-04-20T11:16:36.088Z,31.40
2019-04-20T11:19:07.428Z,30.76
2019-04-20T11:21:36.486Z,30.24
2019-04-20T11:24:05.255Z,30.59
2019-04-20T11:26:36.604Z,30.62
2019-04-20T11:29:04.324Z,29.92
2019-04-20T11:31:38.753Z,29.70
2019-04-20T11:34:03.898Z,29.29
2019-04-20T11:36:33.042Z,29.49
2019-04-20T11:39:02.935Z,30.29
2019-04-20T11:41:33.841Z,29.43
2019-04-20T11:44:02.107Z,29.41
2019-04-20T11:46:30.587Z,29.58
2019-04-20T11:48:59.476Z,29.20
2019-04-20T11:51:28.059Z,28.41
2019-04-20T11:53:56.632Z,28.71
2019-04-20T11:56:31.479Z,29.15
2019-04-20T11:58:56.742Z,29.30
2019-04-20T12:01:45.366Z,29.26
2019-04-20T12:04:20.027Z,28.68
2019-04-20T12:06:39.143Z,28.86
2019-04-20T12:09:10.793Z,28.24
2019-04-20T12:11:53.354Z,28.27
2019-04-20T12:14:10.394Z,28.43
2019-04-20T12:16:39.578Z,29.05
2019-04-20T12:19:08.578Z,28.47
2019-04-20T12:21:37.265Z,27.83
2019-04-20T12:24:07.036Z,28.04
2019-04-20T12:26:36.513Z,27.67
2019-04-20T12:29:05.726Z,27.92
2019-04-20T12:31:35.548Z,27.96
2019-04-20T12:34:04.597Z,28.35
2019-04-20T12:36:33.321Z,26.84
2019-04-20T12:39:03.321Z,27.72
2019-04-20T12:41:39.486Z,27.36
2019-04-20T12:44:07.921Z,27.18
2019-04-20T12:46:38.118Z,27.22
2019-04-20T12:49:07.643Z,26.85
2019-04-20T12:51:48.009Z,26.83
2019-04-20T12:54:06.851Z,25.83
2019-04-20T12:56:35.272Z,25.08
2019-04-20T12:59:05.512Z,25.70
2019-04-20T13:01:35.436Z,25.38
2019-04-20T13:04:07.482Z,24.97
2019-04-20T13:06:37.329Z,24.58
2019-04-20T13:09:10.592Z,24.58
2019-04-20T13:11:49.462Z,24.13
2019-04-20T13:14:40.209Z,23.63
2019-04-20T13:17:08.638Z,23.91
2019-04-20T13:19:37.407Z,23.31
2019-04-20T13:22:07.337Z,23.28
2019-04-20T13:24:36.959Z,22.87
2019-04-20T13:27:07.065Z,22.62
2019-04-20T13:29:38.102Z,22.56
2019-04-20T13:32:07.443Z,22.78
2019-04-20T13:34:36.432Z,22.35
2019-04-20T13:37:06.421Z,21.83
2019-04-20T13:39:35.205Z,21.45
2019-04-20T13:42:12.099Z,21.15
2019-04-20T13:44:34.959Z,21.26
2019-04-20T13:47:03.454Z,20.74
2019-04-20T13:49:32.995Z,21.24
2019-04-20T13:52:02.546Z,20.98
2019-04-20T13:54:31.747Z,21.09
2019-04-20T13:57:01.954Z,20.97
2019-04-20T13:59:41.943Z,21.16
2019-04-20T14:02:20.256Z,21.54
2019-04-20T14:04:50.860Z,20.88
2019-04-20T14:07:20.287Z,19.91
2019-04-20T14:09:49.462Z,20.04
2019-04-20T14:12:25.207Z,20.38
2019-04-20T14:14:48.931Z,20.06
2019-04-20T14:17:19.096Z,21.47
2019-04-20T14:19:49.412Z,21.03
2019-04-20T14:22:18.976Z,21.22
2019-04-20T14:24:48.901Z,21.80
2019-04-20T14:27:18.950Z,22.11
2019-04-20T14:29:48.651Z,22.44
2019-04-20T14:32:17.223Z,24.05
2019-04-20T14:34:47.040Z,22.66
2019-04-20T14:37:15.571Z,22.76
2019-04-20T14:39:44.006Z,22.19
2019-04-20T14:42:24.252Z,22.03
2019-04-20T14:44:43.744Z,21.22
2019-04-20T14:47:12.316Z,20.55
2019-04-20T14:49:40.938Z,20.98
2019-04-20T14:52:09.517Z,20.36
2019-04-20T14:54:39.300Z,20.09
2019-04-20T14:57:09.578Z,19.53
2019-04-20T14:59:41.249Z,19.23
2019-04-20T15:02:10.756Z,19.03
2019-04-20T15:04:39.165Z,19.00
2019-04-20T15:07:08.761Z,18.79
2019-04-20T15:09:38.946Z,18.37
2019-04-20T15:12:08.798Z,18.48
2019-04-20T15:14:38.783Z,18.70
2019-04-20T15:17:08.991Z,17.91
2019-04-20T15:19:59.253Z,18.38
2019-04-20T15:22:39.298Z,18.56
2019-04-20T15:25:09.585Z,18.15
2019-04-20T15:27:42.475Z,17.58
2019-04-20T15:30:09.610Z,17.80
2019-04-20T15:32:38.930Z,17.21
2019-04-20T15:35:09.042Z,17.73
2019-04-20T15:37:39.515Z,17.95
2019-04-20T15:40:08.914Z,17.69
2019-04-20T15:42:49.663Z,17.61
2019-04-20T15:45:07.755Z,17.25
2019-04-20T15:47:38.237Z,17.26
2019-04-20T15:50:07.928Z,17.35
2019-04-20T15:52:41.052Z,17.32
2019-04-20T15:55:18.580Z,17.48
2019-04-20T15:57:38.558Z,17.20
2019-04-20T16:00:08.740Z,17.52
2019-04-20T16:02:49.421Z,18.20
2019-04-20T16:05:22.277Z,18.54
2019-04-20T16:07:56.269Z,17.95
2019-04-20T16:10:21.235Z,17.70
2019-04-20T16:13:02.058Z,18.17
2019-04-20T16:15:20.046Z,17.80
2019-04-20T16:17:51.605Z,17.80
2019-04-20T16:20:23.126Z,17.46
2019-04-20T16:22:49.276Z,17.89
2019-04-20T16:25:25.558Z,17.82
2019-04-20T16:27:54.359Z,18.13
2019-04-20T16:30:23.411Z,18.30
2019-04-20T16:32:52.538Z,18.28
2019-04-20T16:35:22.474Z,17.89
2019-04-20T16:37:51.032Z,17.86
2019-04-20T16:40:19.961Z,18.61
2019-04-20T16:42:48.477Z,18.46
2019-04-20T16:45:17.322Z,18.40
2019-04-20T16:47:46.288Z,18.60
2019-04-20T16:50:15.254Z,19.66
2019-04-20T16:52:43.734Z,19.72
2019-04-20T16:55:13.056Z,19.62
2019-04-20T16:57:41.767Z,19.97
2019-04-20T17:00:11.709Z,20.21
2019-04-20T17:02:40.448Z,21.13
2019-04-20T17:05:09.430Z,21.45
2019-04-20T17:07:42.924Z,22.04
2019-04-20T17:10:15.911Z,22.07
2019-04-20T17:12:46.052Z,22.38
2019-04-20T17:15:16.253Z,22.24
2019-04-20T17:17:46.743Z,22.25
2019-04-20T17:20:15.980Z,22.80
2019-04-20T17:22:44.591Z,22.97
2019-04-20T17:25:14.668Z,22.95
2019-04-20T17:28:02.531Z,23.26
2019-04-20T17:30:33.682Z,23.48
2019-04-20T17:33:19.523Z,24.12
2019-04-20T17:35:55.130Z,24.40
2019-04-20T17:38:16.689Z,24.77
2019-04-20T17:41:00.987Z,25.49
2019-04-20T17:43:25.137Z,26.25
2019-04-20T17:45:54.340Z,26.28
2019-04-20T17:48:29.763Z,26.43
2019-04-20T17:51:11.169Z,26.71
2019-04-20T17:53:37.446Z,26.80
2019-04-20T17:55:57.315Z,27.32
2019-04-20T17:58:29.836Z,28.21
2019-04-20T18:00:58.546Z,28.81
2019-04-20T18:04:05.445Z,29.48
2019-04-20T18:06:19.986Z,29.90
2019-04-20T18:08:52.191Z,30.77
2019-04-20T18:11:10.983Z,31.05
2019-04-20T18:13:34.276Z,31.06
2019-04-20T18:16:30.186Z,31.38
2019-04-20T18:18:52.797Z,32.25
2019-04-20T18:21:18.983Z,32.38
2019-04-20T18:23:49.928Z,32.66
2019-04-20T18:26:37.883Z,33.09
2019-04-20T18:29:26.217Z,33.61
2019-04-20T18:31:26.334Z,33.93
2019-04-20T18:34:00.669Z,34.35
2019-04-20T18:36:32.925Z,34.40
2019-04-20T18:39:05.005Z,34.37
2019-04-20T18:41:38.381Z,34.55
2019-04-20T18:44:00.814Z,34.71
2019-04-20T18:46:57.329Z,35.14
2019-04-20T18:49:13.601Z,35.72
2019-04-20T18:51:30.077Z,35.88
2019-04-20T18:54:05.576Z,35.89
2019-04-20T18:56:35.233Z,36.11
2019-04-20T18:58:59.215Z,36.29
2019-04-20T19:01:33.343Z,36.34
2019-04-20T19:03:59.691Z,36.48
2019-04-20T19:06:29.798Z,36.49
2019-04-20T19:08:58.983Z,36.71
2019-04-20T19:11:28.796Z,36.46
2019-04-20T19:14:23.664Z,36.24
2019-04-20T19:17:02.068Z,36.51
2019-04-20T19:19:27.769Z,36.72
2019-04-20T19:21:54.176Z,36.96
2019-04-20T19:24:32.717Z,37.12
2019-04-20T19:27:03.576Z,37.44
2019-04-20T19:29:38.512Z,37.77
2019-04-20T19:32:21.125Z,37.89
2019-04-20T19:34:47.502Z,38.28
2019-04-20T19:37:16.769Z,38.60
2019-04-20T19:39:49.392Z,38.75
2019-04-20T19:42:31.132Z,38.75
2019-04-20T19:45:00.484Z,38.89
2019-04-20T19:47:40.974Z,38.97
2019-04-20T19:50:19.668Z,38.92
2019-04-20T19:52:45.971Z,38.76
2019-04-20T19:55:10.493Z,38.90
2019-04-20T19:57:43.406Z,38.95
2019-04-20T19:59:57.734Z,39.02
2019-04-20T20:02:27.715Z,39.36
2019-04-20T20:05:07.190Z,39.18
2019-04-20T20:07:41.924Z,39.48
2019-04-20T20:13:02.408Z,39.80
2019-04-20T20:15:38.001Z,40.16
2019-04-20T20:18:23.122Z,40.47
2019-04-20T20:20:55.699Z,40.67
2019-04-20T20:23:14.370Z,40.93
2019-04-20T20:25:48.171Z,41.51
2019-04-20T20:28:29.825Z,41.84
2019-04-20T20:30:56.994Z,42.07
2019-04-20T20:33:39.757Z,42.21
2019-04-20T20:36:05.686Z,42.44
2019-04-20T20:38:36.959Z,42.60
2019-04-20T20:41:08.721Z,42.92
2019-04-20T20:43:52.373Z,43.13
2019-04-20T20:46:19.718Z,43.57
2019-04-20T20:49:03.442Z,43.99
2019-04-20T20:51:35.785Z,44.13
2019-04-20T20:53:51.201Z,44.14
2019-04-20T20:56:22.060Z,44.12
2019-04-20T20:58:56.043Z,44.25
2019-04-20T21:01:23.685Z,44.50
2019-04-20T21:03:53.098Z,44.71
2019-04-20T21:06:24.450Z,45.08
2019-04-20T21:09:05.091Z,45.50
2019-04-20T21:11:37.937Z,45.58
2019-04-20T21:14:08.937Z,46.02
2019-04-20T21:16:52.213Z,46.26
2019-04-20T21:19:27.042Z,46.39
2019-04-20T21:21:55.918Z,46.45
2019-04-20T21:24:21.523Z,46.60
2019-04-20T21:26:53.848Z,46.60
2019-04-20T21:29:32.815Z,46.94
2019-04-20T21:32:03.354Z,47.05
2019-04-20T21:34:29.014Z,47.30
2019-04-20T21:37:03.536Z,47.58
2019-04-20T21:39:40.990Z,47.91
2019-04-20T21:42:12.550Z,48.26
2019-04-20T21:44:42.918Z,48.75
2019-04-20T21:47:15.697Z,49.04
2019-04-20T21:49:55.735Z,49.17
2019-04-20T21:52:25.889Z,49.13
2019-04-20T21:54:52.095Z,49.23
2019-04-20T21:57:22.168Z,49.50
2019-04-20T21:59:56.815Z,49.75
2019-04-20T22:02:32.158Z,49.86
2019-04-20T22:04:57.817Z,49.93
2019-04-20T22:07:28.812Z,50.15
2019-04-20T22:10:00.627Z,50.40
2019-04-20T22:12:39.741Z,50.83
2019-04-20T22:15:17.337Z,51.10
2019-04-20T22:17:41.552Z,51.04
2019-04-20T22:20:24.768Z,50.95
2019-04-20T22:22:59.849Z,51.06
2019-04-20T22:25:37.906Z,51.46
2019-04-20T22:27:50.312Z,51.79
2019-04-20T22:30:20.120Z,51.99
2019-04-20T22:32:50.658Z,51.99
2019-04-20T22:35:22.659Z,52.00
2019-04-20T22:38:02.107Z,52.25
2019-04-20T22:40:33.372Z,52.70
2019-04-20T22:43:02.167Z,52.87
2019-04-20T22:45:38.966Z,53.02
2019-04-20T22:48:09.074Z,53.19
2019-04-20T22:50:51.094Z,53.23
2019-04-20T22:53:26.301Z,53.31
2019-04-20T22:56:01.202Z,53.37
2019-04-20T22:58:28.877Z,53.48
2019-04-20T23:00:51.970Z,53.93
2019-04-20T23:03:18.867Z,53.90
2019-04-20T23:05:50.983Z,53.97
2019-04-20T23:08:22.432Z,54.14
2019-04-20T23:10:53.523Z,54.19
2019-04-20T23:13:33.380Z,54.19
2019-04-20T23:16:02.201Z,54.16
2019-04-20T23:18:30.211Z,54.40
2019-04-20T23:21:03.875Z,54.69
2019-04-20T23:23:33.877Z,54.70
2019-04-20T23:26:05.242Z,54.87
2019-04-20T23:28:35.459Z,55.00
2019-04-20T23:31:11.686Z,55.37
2019-04-20T23:33:38.084Z,55.50
2019-04-20T23:36:10.092Z,55.61
2019-04-20T23:38:44.551Z,55.71
2019-04-20T23:41:13.542Z,55.81
2019-04-20T23:43:47.455Z,55.86
2019-04-20T23:46:24.476Z,55.94
2019-04-20T23:48:58.639Z,56.08
2019-04-20T23:51:49.069Z,56.41
2019-04-20T23:54:05.989Z,56.59
2019-04-20T23:56:28.103Z,56.77
2019-04-20T23:58:59.835Z,56.99
